WetterOnline ( https://www.wetteronline.de )

Wetter aktuell Heimertingen

Aktuelles Wetter: Leutkirch-Herlazhofen (671m)

6-stündlich | Neueste Meldungen
Ortszeit Temperatur Wetter
Do, 24.09. 2:00 9.6° C wolkig
Mi, 23.09. 20:00 13.4° C wolkig
Mi, 23.09. 14:00 16.8° C bewölkt
Mi, 23.09. 8:00 13.5° C leichter Regen
Mi, 23.09. 2:00 13.5° C leichter Regen
Di, 22.09. 20:00 17.2° C wolkig
Di, 22.09. 14:00 21.0° C leicht bewölkt
Di, 22.09. 8:00 12.1° C bedeckt
Ortszeit Temperatur Wetter
Do, 24.09. 4:30 12.3° C leicht bewölkt
Do, 24.09. 4:20 12.3° C leicht bewölkt
Do, 24.09. 4:10 12.0° C leicht bewölkt
Do, 24.09. 4:00 12.0° C leicht bewölkt
Do, 24.09. 3:50 12.0° C leicht bewölkt
Do, 24.09. 3:40 11.9° C leicht bewölkt
Do, 24.09. 3:30 11.3° C wolkig
Do, 24.09. 3:00 10.7° C wolkenlos
Ortszeit Relative Feuchte Sichtweite
Do, 24.09. 2:00 97% 18 km
Mi, 23.09. 20:00 92% 24 km
Mi, 23.09. 14:00 83% >70 km
Mi, 23.09. 8:00 96% 21 km
Mi, 23.09. 2:00 96% 24 km
Di, 22.09. 20:00 84% 27 km
Di, 22.09. 14:00 66% 25 km
Di, 22.09. 8:00 97% 13 km
Ortszeit Relative Feuchte Sichtweite
Do, 24.09. 4:30 86% 65 km
Do, 24.09. 4:20 86% -
Do, 24.09. 4:10 89% -
Do, 24.09. 4:00 89% 55 km
Do, 24.09. 3:50 89% -
Do, 24.09. 3:40 89% -
Do, 24.09. 3:30 91% 55 km
Do, 24.09. 3:00 94% 45 km
Ortszeit Niederschlagsmenge Niederschlagsart
Do, 24.09. 2:00 0.0 l/m2 in 6 Std. -
Mi, 23.09. 20:00 0.7 l/m2 in 12 Std. Regen
Mi, 23.09. 14:00 0.7 l/m2 in 6 Std. Regen
Mi, 23.09. 8:00 20 l/m2 in 12 Std. Regen
Mi, 23.09. 2:00 6 l/m2 in 6 Std. Regen
Di, 22.09. 20:00 0.0 l/m2 in 12 Std. -
Di, 22.09. 14:00 0.0 l/m2 in 6 Std. -
Di, 22.09. 8:00 1 l/m2 in 12 Std. -
Ortszeit Niederschlagsmenge Niederschlagsart
Do, 24.09. 4:30 0.0 l/m2 in 1 Std. -
Do, 24.09. 4:20 keine Meldung -
Do, 24.09. 4:10 keine Meldung -
Do, 24.09. 4:00 0.0 l/m2 in 1 Std. -
Do, 24.09. 3:50 keine Meldung -
Do, 24.09. 3:40 keine Meldung -
Do, 24.09. 3:30 0.0 l/m2 in 1 Std. -
Do, 24.09. 3:00 0.0 l/m2 in 1 Std. -
Ortszeit Stärke Spitze Richtung
km/h Bft. km/h Grad Sektor
Do, 24.09. 2:00 4 1 11 130° SO
Mi, 23.09. 20:00 9 2 30 180° S
Mi, 23.09. 14:00 9 2 28 260° W
Mi, 23.09. 8:00 11 2 36 200° S
Mi, 23.09. 2:00 4 1 32 160° S
Di, 22.09. 20:00 9 2 13 190° S
Di, 22.09. 14:00 7 2 18 240° SW
Di, 22.09. 8:00 4 1 14 90° O
Ortszeit Stärke Spitze Richtung
km/h Bft. km/h Grad Sektor
Do, 24.09. 4:30 7 2 11 200° S
Do, 24.09. 4:20 7 2 - 200° S
Do, 24.09. 4:10 6 1 - 200° S
Do, 24.09. 4:00 6 1 15 200° S
Do, 24.09. 3:50 6 1 - 200° S
Do, 24.09. 3:40 6 1 - 200° S
Do, 24.09. 3:30 7 2 14 190° S
Do, 24.09. 3:00 7 2 11 190° S
Ortszeit Untergrenze Bedeckung Gattung
total tief tief mittel hoch
Do, 24.09. 2:00 6600 m 8/8 2/8 - - -
Mi, 23.09. 20:00 2700 m 6/8 6/8 - - -
Mi, 23.09. 14:00 570 m 7/8 7/8 - - -
Mi, 23.09. 8:00 1500 m 7/8 7/8 - - -
Mi, 23.09. 2:00 2400 m 4/8 4/8 - - -
Di, 22.09. 20:00 750 m 7/8 1/8 - - -
Di, 22.09. 14:00 1800 m 3/8 3/8 - - -
Di, 22.09. 8:00 3600 m 8/8 8/8 - - -
Ortszeit Bedeckungsgrad in Achtel und Wolkenuntergrenze
Do, 24.09. 4:30 1(1800m) 3(8700m)
Do, 24.09. 4:20 1(1800m) 2(6900m) 3(8700m)
Do, 24.09. 4:10 2(1800m) 4(6900m) 5(8700m)
Do, 24.09. 4:00 2(1800m) 3(2100m) 6(8700m)
Do, 24.09. 3:50 2(1800m) 3(2100m)
Do, 24.09. 3:40 1(2100m) 3(6900m)
Do, 24.09. 3:30 5(6900m)
Do, 24.09. 3:00 2(6900m)
Ortszeit Luftdruck NN (hPa) Tendenz (hPa in 3 Std.)
Do, 24.09. 2:00 1010 - 0,7
Mi, 23.09. 20:00 1009 0,0
Mi, 23.09. 14:00 1009 - 0,7
Mi, 23.09. 8:00 1011 + 0,3
Mi, 23.09. 2:00 1010 - 0,6
Di, 22.09. 20:00 1009 - 0,6
Di, 22.09. 14:00 1011 - 1,3
Di, 22.09. 8:00 1015 - 0,2
Ortszeit Luftdruck NN (hPa) Tendenz (hPa in 3 Std.)
Do, 24.09. 4:30 1009 - 0,3
Do, 24.09. 4:20 1009 keine Meldung
Do, 24.09. 4:10 1009 keine Meldung
Do, 24.09. 4:00 1009 0,0
Do, 24.09. 3:50 1009 keine Meldung
Do, 24.09. 3:40 1009 keine Meldung
Do, 24.09. 3:30 1009 - 0,1
Do, 24.09. 3:00 1010 - 0,5
Ortszeit Schneehöhe (cm)
Do, 24.09. 2:00 0
Mi, 23.09. 20:00 0
Mi, 23.09. 14:00 0
Mi, 23.09. 8:00 0
Mi, 23.09. 2:00 0
Di, 22.09. 20:00 0
Di, 22.09. 14:00 0
Di, 22.09. 8:00 0
Ortszeit Schneehöhe (cm)
Do, 24.09. 4:30 0
Do, 24.09. 4:20 0
Do, 24.09. 4:10 0
Do, 24.09. 4:00 0
Do, 24.09. 3:50 0
Do, 24.09. 3:40 0
Do, 24.09. 3:30 0
Do, 24.09. 3:00 0
Link zu dieser Seite / Seite empfehlen

Das Wetter in ...